createdAt,value
2022-10-19T00:01:12.625Z,6.70
2022-10-19T00:04:02.471Z,7.67
2022-10-19T00:06:52.088Z,7.73
2022-10-19T00:09:39.079Z,7.40
2022-10-19T00:12:26.461Z,8.10
2022-10-19T00:15:13.473Z,13.37
2022-10-19T00:18:02.123Z,11.17
2022-10-19T00:20:49.169Z,9.87
2022-10-19T00:23:36.298Z,14.13
2022-10-19T00:26:23.331Z,6.37
2022-10-19T00:29:10.539Z,7.60
2022-10-19T00:31:57.182Z,10.77
2022-10-19T00:34:45.073Z,10.50
2022-10-19T00:37:31.772Z,9.87
2022-10-19T00:40:18.911Z,6.43
2022-10-19T00:43:07.004Z,13.73
2022-10-19T00:45:54.776Z,8.73
2022-10-19T00:48:41.869Z,9.47
2022-10-19T00:51:30.847Z,12.57
2022-10-19T00:54:20.007Z,6.97
2022-10-19T00:57:07.899Z,17.97
2022-10-19T00:59:55.261Z,8.47
2022-10-19T01:02:42.049Z,8.10
2022-10-19T01:05:29.264Z,7.83
2022-10-19T01:08:17.663Z,8.57
2022-10-19T01:11:14.148Z,11.23
2022-10-19T01:14:06.209Z,12.43
2022-10-19T01:16:56.228Z,8.57
2022-10-19T01:20:04.124Z,7.00
2022-10-19T01:22:58.585Z,7.33
2022-10-19T01:25:53.554Z,11.30
2022-10-19T01:28:46.254Z,7.43
2022-10-19T01:31:36.425Z,9.00
2022-10-19T01:34:26.325Z,8.43
2022-10-19T01:37:19.014Z,7.03
2022-10-19T01:40:07.151Z,10.00
2022-10-19T01:42:59.004Z,15.07
2022-10-19T01:45:49.806Z,12.30
2022-10-19T01:48:41.402Z,9.70
2022-10-19T01:51:30.644Z,11.30
2022-10-19T01:54:20.596Z,9.23
2022-10-19T01:57:09.390Z,12.80
2022-10-19T01:59:56.770Z,12.20
2022-10-19T02:02:47.158Z,19.20
2022-10-19T02:05:37.171Z,12.57
2022-10-19T02:08:27.001Z,21.37
2022-10-19T02:11:14.308Z,20.63
2022-10-19T02:14:05.717Z,21.97
2022-10-19T02:16:58.357Z,29.77
2022-10-19T02:19:45.812Z,27.23
2022-10-19T02:22:34.614Z,30.23
2022-10-19T02:25:21.545Z,28.00
2022-10-19T02:28:09.171Z,22.47
2022-10-19T02:30:55.782Z,35.63
2022-10-19T02:33:42.614Z,28.43
2022-10-19T02:36:29.393Z,24.17
2022-10-19T02:39:17.638Z,26.07
2022-10-19T02:42:07.465Z,34.30
2022-10-19T02:44:58.072Z,31.47
2022-10-19T02:47:46.707Z,29.10
2022-10-19T02:50:34.029Z,31.80
2022-10-19T02:53:21.239Z,28.17
2022-10-19T02:56:10.610Z,32.77
2022-10-19T02:58:58.516Z,31.73
2022-10-19T03:01:45.455Z,29.30
2022-10-19T03:04:32.888Z,28.30
2022-10-19T03:07:21.577Z,27.47
2022-10-19T03:10:08.992Z,26.07
2022-10-19T03:12:58.797Z,22.80
2022-10-19T03:15:45.597Z,28.00
2022-10-19T03:18:32.547Z,35.43
2022-10-19T03:21:20.220Z,39.50
2022-10-19T03:24:07.948Z,34.73
2022-10-19T03:26:54.915Z,41.93
2022-10-19T03:29:43.291Z,43.83
2022-10-19T03:32:30.554Z,34.40
2022-10-19T03:35:17.785Z,44.60
2022-10-19T03:38:04.453Z,39.83
2022-10-19T03:40:51.476Z,40.70
2022-10-19T03:43:38.384Z,38.97
2022-10-19T03:46:26.691Z,52.57
2022-10-19T03:49:13.732Z,33.63
2022-10-19T03:52:00.427Z,44.20
2022-10-19T03:54:47.700Z,40.63
2022-10-19T03:57:34.849Z,31.07
2022-10-19T04:00:22.132Z,30.80
2022-10-19T04:03:10.375Z,30.03
2022-10-19T04:06:03.670Z,33.93
2022-10-19T04:08:51.004Z,34.00
2022-10-19T04:11:37.935Z,25.73
2022-10-19T04:14:32.445Z,32.57
2022-10-19T04:17:39.178Z,24.87
2022-10-19T04:20:27.569Z,25.13
2022-10-19T04:23:14.346Z,25.87
2022-10-19T04:26:01.972Z,27.73
2022-10-19T04:28:49.018Z,21.73
2022-10-19T04:31:36.059Z,25.13
2022-10-19T04:34:23.078Z,21.90
2022-10-19T04:37:11.003Z,20.73
2022-10-19T04:39:57.726Z,22.93
2022-10-19T04:42:44.969Z,19.13
2022-10-19T04:45:31.932Z,21.87
2022-10-19T04:48:18.851Z,21.60
2022-10-19T04:51:06.365Z,27.37
2022-10-19T04:53:59.318Z,20.00
2022-10-19T04:56:47.055Z,20.67
2022-10-19T04:59:34.132Z,23.77
2022-10-19T05:02:20.909Z,17.70
2022-10-19T05:05:08.700Z,18.47
2022-10-19T05:07:56.007Z,22.47
2022-10-19T05:10:47.008Z,26.73
2022-10-19T05:13:35.225Z,20.37
2022-10-19T05:16:23.493Z,20.13
2022-10-19T05:19:14.355Z,19.03
2022-10-19T05:22:01.436Z,16.80
2022-10-19T05:24:50.235Z,15.97
2022-10-19T05:27:39.809Z,18.03
2022-10-19T05:30:26.526Z,23.50
2022-10-19T05:33:13.429Z,25.30
2022-10-19T05:36:00.387Z,16.07
2022-10-19T05:38:48.396Z,19.57
2022-10-19T05:41:35.532Z,17.73
2022-10-19T05:44:24.763Z,20.47
2022-10-19T05:47:11.832Z,26.30
2022-10-19T05:49:58.917Z,20.00
2022-10-19T05:52:45.993Z,20.37
2022-10-19T05:55:36.340Z,25.30
2022-10-19T05:58:23.450Z,22.90
2022-10-19T06:01:13.945Z,26.50
2022-10-19T06:04:01.529Z,21.50
2022-10-19T06:06:48.842Z,24.93
2022-10-19T06:09:36.917Z,18.37
2022-10-19T06:12:25.117Z,24.63
2022-10-19T06:15:12.547Z,20.63
2022-10-19T06:18:00.883Z,18.50
2022-10-19T06:20:47.877Z,18.50
2022-10-19T06:23:35.610Z,21.57
2022-10-19T06:26:22.702Z,22.93
2022-10-19T06:29:09.721Z,16.63
2022-10-19T06:31:56.588Z,19.80
2022-10-19T06:34:44.822Z,19.47
2022-10-19T06:37:32.522Z,18.37
2022-10-19T06:40:19.936Z,17.87
2022-10-19T06:43:07.044Z,24.43
2022-10-19T06:45:54.154Z,16.87
2022-10-19T06:48:41.300Z,17.07
2022-10-19T06:51:30.460Z,22.47
2022-10-19T06:54:17.515Z,19.87
2022-10-19T06:57:04.539Z,24.27
2022-10-19T06:59:53.019Z,22.90
2022-10-19T07:02:40.754Z,19.40
2022-10-19T07:05:27.988Z,19.50
2022-10-19T07:08:16.301Z,21.73
2022-10-19T07:11:04.266Z,26.20
2022-10-19T07:13:51.419Z,23.20
2022-10-19T07:16:38.444Z,22.87
2022-10-19T07:19:27.732Z,24.97
2022-10-19T07:22:20.367Z,23.33
2022-10-19T07:25:13.011Z,16.07
2022-10-19T07:27:59.737Z,19.03
2022-10-19T07:30:46.736Z,15.80
2022-10-19T07:33:33.697Z,17.00
2022-10-19T07:36:21.348Z,16.03
2022-10-19T07:39:10.335Z,16.07
2022-10-19T07:41:58.596Z,16.17
2022-10-19T07:44:45.846Z,17.23
2022-10-19T07:47:33.632Z,12.63
2022-10-19T07:50:20.879Z,18.47
2022-10-19T07:53:08.045Z,17.17
2022-10-19T07:55:55.249Z,14.20
2022-10-19T07:58:43.490Z,12.50
2022-10-19T08:01:31.208Z,15.67
2022-10-19T08:07:25.778Z,10.10
2022-10-19T08:10:12.926Z,11.27
2022-10-19T08:12:59.793Z,9.80
2022-10-19T08:15:47.677Z,14.23
2022-10-19T08:18:36.024Z,11.00
2022-10-19T08:21:23.137Z,12.40
2022-10-19T08:24:09.844Z,10.03
2022-10-19T08:26:56.824Z,12.53
2022-10-19T08:29:43.888Z,12.30
2022-10-19T08:32:33.288Z,13.77
2022-10-19T08:35:20.574Z,11.83
2022-10-19T08:38:08.719Z,11.93
2022-10-19T08:40:55.625Z,9.07
2022-10-19T08:43:51.885Z,10.47
2022-10-19T08:46:47.213Z,13.10
2022-10-19T08:49:35.684Z,10.13
2022-10-19T08:52:25.200Z,9.10
2022-10-19T08:55:18.100Z,9.40
2022-10-19T08:58:23.014Z,11.43
2022-10-19T09:01:15.255Z,7.93
2022-10-19T09:04:05.816Z,7.97
2022-10-19T09:07:04.286Z,9.73
2022-10-19T09:09:55.904Z,8.83
2022-10-19T09:12:46.631Z,9.83
2022-10-19T09:15:40.724Z,9.60
2022-10-19T09:18:29.760Z,6.83
2022-10-19T09:21:26.022Z,14.90
2022-10-19T09:24:30.270Z,13.00
2022-10-19T09:27:22.595Z,7.57
2022-10-19T09:30:19.265Z,7.03
2022-10-19T09:33:16.699Z,8.57
2022-10-19T09:36:05.279Z,8.00
2022-10-19T09:38:53.473Z,5.63
2022-10-19T09:41:48.080Z,4.00
2022-10-19T09:44:35.384Z,3.90
2022-10-19T09:47:34.827Z,3.97
2022-10-19T09:50:24.329Z,4.63
2022-10-19T09:53:18.862Z,4.70
2022-10-19T09:56:08.649Z,5.37
2022-10-19T09:58:59.532Z,4.03
2022-10-19T10:01:46.941Z,5.73
2022-10-19T10:04:36.733Z,4.97
2022-10-19T10:07:31.104Z,4.30
2022-10-19T10:10:26.768Z,5.60
2022-10-19T10:13:19.885Z,5.80
2022-10-19T10:16:11.045Z,3.90
2022-10-19T10:19:01.299Z,4.00
2022-10-19T10:21:55.838Z,3.83
2022-10-19T10:24:54.555Z,4.03
2022-10-19T10:27:41.586Z,4.20
2022-10-19T10:30:33.404Z,4.43
2022-10-19T10:33:43.779Z,5.20
2022-10-19T10:36:32.292Z,3.73
2022-10-19T10:39:21.171Z,4.23
2022-10-19T10:42:14.671Z,3.83
2022-10-19T10:45:02.818Z,3.50
2022-10-19T10:47:50.362Z,3.50
2022-10-19T10:50:39.387Z,3.10
2022-10-19T10:53:47.013Z,4.13
2022-10-19T10:56:35.306Z,5.03
2022-10-19T10:59:27.151Z,3.60
2022-10-19T11:05:18.885Z,5.73
2022-10-19T11:08:16.189Z,4.03
2022-10-19T11:11:13.973Z,3.87
2022-10-19T11:14:05.934Z,3.50
2022-10-19T11:16:54.928Z,3.90
2022-10-19T11:19:44.383Z,4.83
2022-10-19T11:22:39.351Z,2.93
2022-10-19T11:25:35.473Z,3.13
2022-10-19T11:28:40.207Z,3.33
2022-10-19T11:31:37.288Z,2.63
2022-10-19T11:34:47.129Z,2.73
2022-10-19T11:37:49.486Z,5.20
2022-10-19T11:44:15.024Z,2.73
2022-10-19T11:47:18.194Z,4.03
2022-10-19T11:50:18.235Z,2.80
2022-10-19T11:53:13.326Z,3.17
2022-10-19T11:56:08.961Z,5.63
2022-10-19T11:59:03.431Z,2.90
2022-10-19T12:01:58.673Z,2.60
2022-10-19T12:04:55.309Z,2.40
2022-10-19T12:07:55.434Z,2.63
2022-10-19T12:10:51.297Z,2.53
2022-10-19T12:13:44.694Z,4.90
2022-10-19T12:16:38.394Z,3.50
2022-10-19T12:19:28.960Z,2.97
2022-10-19T12:22:20.639Z,3.33
2022-10-19T12:25:15.331Z,3.60
2022-10-19T12:28:30.585Z,3.03
2022-10-19T12:31:21.211Z,3.60
2022-10-19T12:34:21.628Z,4.63
2022-10-19T12:37:15.947Z,2.40
2022-10-19T12:40:09.388Z,2.80
2022-10-19T12:43:04.381Z,3.77
2022-10-19T12:46:03.223Z,4.70
2022-10-19T12:49:41.034Z,3.50
2022-10-19T12:52:44.434Z,2.40
2022-10-19T12:55:34.871Z,8.27
2022-10-19T12:58:23.988Z,2.70
2022-10-19T13:01:16.853Z,2.35
2022-10-19T13:04:13.473Z,1.88
2022-10-19T13:07:02.825Z,4.53
2022-10-19T13:09:51.100Z,2.58
2022-10-19T13:12:47.209Z,6.07
2022-10-19T13:15:58.618Z,2.30
2022-10-19T13:19:07.344Z,5.78
2022-10-19T13:22:15.435Z,2.93
2022-10-19T13:25:28.080Z,2.45
2022-10-19T13:28:38.006Z,4.00
2022-10-19T13:31:26.551Z,7.25
2022-10-19T13:34:17.456Z,5.43
2022-10-19T13:37:05.784Z,3.80
2022-10-19T13:39:52.803Z,2.07
2022-10-19T13:42:41.432Z,3.13
2022-10-19T13:45:28.968Z,4.97
2022-10-19T13:48:25.406Z,2.70
2022-10-19T13:51:19.612Z,4.43
2022-10-19T13:54:12.434Z,2.03
2022-10-19T13:57:11.668Z,2.57
2022-10-19T14:00:16.271Z,2.23
2022-10-19T14:03:11.749Z,1.73
2022-10-19T14:06:06.574Z,2.43
2022-10-19T14:09:08.731Z,3.93
2022-10-19T14:12:04.276Z,2.17
2022-10-19T14:14:53.396Z,2.20
2022-10-19T14:17:43.851Z,2.57
2022-10-19T14:20:32.848Z,7.97
2022-10-19T14:23:20.279Z,2.07
2022-10-19T14:26:08.944Z,4.10
2022-10-19T14:28:58.108Z,3.00
2022-10-19T14:31:45.050Z,4.27
2022-10-19T14:34:33.554Z,2.50
2022-10-19T14:37:21.372Z,3.17
2022-10-19T14:40:09.593Z,4.10
2022-10-19T14:42:56.798Z,2.67
2022-10-19T14:45:43.996Z,4.53
2022-10-19T14:48:31.157Z,3.53
2022-10-19T14:51:29.163Z,2.37
2022-10-19T14:54:19.476Z,2.70
2022-10-19T14:57:08.681Z,2.10
2022-10-19T14:59:59.125Z,2.33
2022-10-19T15:02:48.551Z,3.00
2022-10-19T15:05:42.449Z,3.17
2022-10-19T15:08:34.812Z,2.53
2022-10-19T15:11:25.071Z,2.77
2022-10-19T15:14:15.864Z,2.53
2022-10-19T15:17:05.694Z,3.13
2022-10-19T15:19:53.579Z,3.43
2022-10-19T15:22:41.714Z,2.57
2022-10-19T15:25:36.832Z,2.83
2022-10-19T15:28:34.903Z,3.30
2022-10-19T15:31:28.069Z,2.97
2022-10-19T15:34:23.621Z,2.70
2022-10-19T15:37:17.291Z,2.60
2022-10-19T15:40:12.073Z,3.50
2022-10-19T15:43:00.468Z,2.70
2022-10-19T15:48:55.240Z,7.13
2022-10-19T15:51:45.604Z,13.87
2022-10-19T15:54:32.674Z,6.83
2022-10-19T15:57:28.330Z,4.00
2022-10-19T16:00:20.277Z,4.17
2022-10-19T16:03:07.021Z,3.63
2022-10-19T16:05:54.272Z,5.83
2022-10-19T16:08:40.964Z,3.50
2022-10-19T16:11:29.227Z,7.97
2022-10-19T16:17:05.548Z,7.00
2022-10-19T16:19:52.923Z,4.40
2022-10-19T16:22:40.124Z,4.10
2022-10-19T16:25:27.209Z,4.20
2022-10-19T16:28:13.920Z,4.63
2022-10-19T16:31:00.855Z,4.10
2022-10-19T16:36:53.749Z,5.17
2022-10-19T16:39:40.595Z,3.53
2022-10-19T16:42:30.402Z,6.20
2022-10-19T16:45:18.868Z,24.33
2022-10-19T16:48:05.862Z,6.77
2022-10-19T16:51:21.936Z,4.30
2022-10-19T16:54:09.494Z,6.50
2022-10-19T16:56:56.475Z,4.57
2022-10-19T16:59:43.636Z,7.90
2022-10-19T17:02:30.816Z,5.50
2022-10-19T17:05:18.003Z,6.07
2022-10-19T17:08:06.864Z,5.90
2022-10-19T17:10:54.350Z,17.40
2022-10-19T17:13:42.013Z,11.50
2022-10-19T17:16:30.223Z,4.30
2022-10-19T17:19:17.219Z,6.00
2022-10-19T17:22:05.379Z,6.13
2022-10-19T17:24:55.646Z,10.97
2022-10-19T17:27:42.583Z,8.60
2022-10-19T17:30:29.594Z,7.67
2022-10-19T17:33:16.747Z,7.57
2022-10-19T17:36:08.600Z,8.10
2022-10-19T17:38:55.693Z,7.23
2022-10-19T17:41:43.372Z,8.87
2022-10-19T17:44:31.105Z,6.37
2022-10-19T17:47:18.720Z,7.50
2022-10-19T17:50:06.092Z,7.60
2022-10-19T17:52:52.744Z,10.03
2022-10-19T17:55:39.756Z,7.70
2022-10-19T17:58:28.299Z,7.50
2022-10-19T18:01:15.596Z,10.37
2022-10-19T18:04:02.780Z,7.80
2022-10-19T18:06:49.901Z,7.17
2022-10-19T18:09:36.898Z,8.53
2022-10-19T18:12:24.085Z,8.77
2022-10-19T18:15:12.247Z,8.80
2022-10-19T18:18:01.999Z,9.90
2022-10-19T18:20:48.837Z,8.00
2022-10-19T18:23:35.940Z,8.27
2022-10-19T18:26:23.550Z,9.37
2022-10-19T18:29:12.348Z,9.70
2022-10-19T18:32:01.452Z,9.37
2022-10-19T18:34:48.876Z,8.10
2022-10-19T18:37:36.073Z,10.53
2022-10-19T18:40:23.125Z,9.37
2022-10-19T18:43:09.828Z,8.67
2022-10-19T18:45:58.630Z,9.37
2022-10-19T18:48:46.981Z,7.97
2022-10-19T18:51:34.460Z,12.00
2022-10-19T18:54:21.561Z,10.97
2022-10-19T18:57:08.518Z,8.77
2022-10-19T18:59:55.572Z,13.47
2022-10-19T19:02:46.903Z,8.27
2022-10-19T19:05:35.053Z,8.93
2022-10-19T19:08:22.088Z,10.17
2022-10-19T19:11:12.506Z,13.33
2022-10-19T19:14:00.904Z,9.80
2022-10-19T19:16:47.728Z,10.83
2022-10-19T19:19:34.819Z,9.37
2022-10-19T19:22:26.008Z,13.40
2022-10-19T19:25:13.243Z,9.67
2022-10-19T19:28:00.415Z,9.80
2022-10-19T19:30:47.803Z,11.50
2022-10-19T19:33:34.777Z,12.03
2022-10-19T19:36:21.960Z,9.60
2022-10-19T19:39:10.323Z,9.77
2022-10-19T19:41:57.125Z,10.77
2022-10-19T19:44:44.313Z,9.70
2022-10-19T19:47:31.299Z,10.27
2022-10-19T19:50:18.583Z,11.73
2022-10-19T19:53:05.714Z,10.30
2022-10-19T19:55:54.381Z,13.10
2022-10-19T19:58:41.871Z,15.60
2022-10-19T20:01:29.465Z,7.17
2022-10-19T20:04:16.678Z,9.03
2022-10-19T20:07:03.543Z,7.33
2022-10-19T20:09:50.521Z,9.37
2022-10-19T20:12:39.472Z,8.60
2022-10-19T20:15:26.953Z,7.43
2022-10-19T20:18:13.762Z,7.17
2022-10-19T20:21:02.793Z,8.47
2022-10-19T20:23:50.001Z,8.23
2022-10-19T20:26:37.118Z,8.70
2022-10-19T20:29:24.974Z,7.77
2022-10-19T20:32:12.063Z,11.93
2022-10-19T20:34:59.226Z,8.43
2022-10-19T20:37:49.234Z,10.47
2022-10-19T20:40:36.449Z,10.40
2022-10-19T20:43:23.466Z,10.60
2022-10-19T20:46:13.137Z,11.93
2022-10-19T20:49:01.530Z,12.23
2022-10-19T20:51:48.703Z,14.10
2022-10-19T20:54:35.767Z,8.70
2022-10-19T20:57:23.046Z,10.00
2022-10-19T21:00:11.113Z,11.27
2022-10-19T21:02:59.432Z,10.20
2022-10-19T21:05:46.249Z,9.03
2022-10-19T21:08:33.268Z,10.77
2022-10-19T21:11:21.218Z,10.00
2022-10-19T21:14:09.355Z,9.97
2022-10-19T21:16:57.490Z,10.47
2022-10-19T21:19:45.908Z,9.27
2022-10-19T21:22:39.146Z,11.20
2022-10-19T21:25:30.163Z,7.23
2022-10-19T21:28:17.193Z,8.87
2022-10-19T21:31:05.121Z,8.70
2022-10-19T21:33:52.141Z,9.03
2022-10-19T21:36:40.749Z,9.57
2022-10-19T21:39:27.221Z,8.90
2022-10-19T21:42:14.071Z,9.83
2022-10-19T21:45:11.874Z,8.33
2022-10-19T21:48:08.696Z,11.40
2022-10-19T21:50:55.814Z,8.77
2022-10-19T21:56:50.405Z,10.40
2022-10-19T21:59:38.010Z,9.00
2022-10-19T22:02:24.955Z,8.90
2022-10-19T22:05:12.002Z,13.23
2022-10-19T22:07:59.272Z,8.30
2022-10-19T22:10:47.597Z,20.17
2022-10-19T22:13:34.790Z,10.73
2022-10-19T22:16:22.796Z,8.43
2022-10-19T22:19:10.468Z,12.37
2022-10-19T22:21:57.315Z,8.90
2022-10-19T22:24:44.406Z,12.33
2022-10-19T22:27:32.633Z,9.47
2022-10-19T22:30:19.808Z,9.13
2022-10-19T22:33:08.221Z,9.37
2022-10-19T22:35:56.490Z,9.30
2022-10-19T22:38:44.041Z,12.27
2022-10-19T22:41:31.111Z,10.70
2022-10-19T22:44:19.825Z,9.70
2022-10-19T22:47:07.657Z,11.73
2022-10-19T22:49:54.943Z,10.57
2022-10-19T22:52:43.109Z,11.10
2022-10-19T22:55:30.104Z,10.67
2022-10-19T22:58:17.688Z,10.17
2022-10-19T23:01:06.954Z,13.37
2022-10-19T23:03:54.101Z,10.73
2022-10-19T23:06:41.148Z,19.60
2022-10-19T23:09:28.354Z,11.03
2022-10-19T23:12:15.503Z,9.87
2022-10-19T23:15:02.537Z,9.33
2022-10-19T23:17:50.992Z,9.40
2022-10-19T23:20:38.195Z,9.37
2022-10-19T23:23:25.455Z,12.20
2022-10-19T23:26:13.667Z,11.00
2022-10-19T23:29:00.666Z,12.27
2022-10-19T23:31:48.370Z,9.90
2022-10-19T23:34:36.366Z,12.73
2022-10-19T23:37:23.095Z,23.87
2022-10-19T23:40:10.439Z,11.70
2022-10-19T23:42:57.343Z,10.53
2022-10-19T23:45:45.969Z,9.77
2022-10-19T23:48:32.788Z,10.17
2022-10-19T23:51:22.688Z,16.07
2022-10-19T23:54:09.766Z,11.40
2022-10-19T23:56:56.601Z,11.80
2022-10-19T23:59:43.862Z,15.40
